Duncanville, Alabama
Current Conditions -  °F | °C
As of 11:53 AM on Monday 24 Nov 2014 (Local Time) from KTCL Reporting Station
Clear Clear  
Wind Chill: 65°   Ceiling: Unl
Heat Index: 65°   Visibility: 10mi
Dew Point: 46°   Wind: 9mph
Humidity: 50%   Direction: 260°W
Pressure: 29.86"   Gusts: NA
Location:  33.06°N, 87.45°W
Report Text: KTCL 241753Z 26008KT 10SM CLR 18/08 A2986 RMK AO2 SLP111 T01830078 10189 20161 50012
Loading
Personal Weather Stations






























Interactive Weather Map New forecast layout! Learn more

10-Day Weather Forecast

Advertisements
Track Severe Weather on mobile